METAR Data
IDs: Format: Raw Decoded Include TAF

Data at: 1456 UTC 03 Jun 2020

KMAW 031455Z AUTO 27006KT 10SM CLR 27/18 A3000 RMK AO2
KMAW 031435Z AUTO 26005KT 10SM CLR 27/18 A3000 RMK AO2
KMAW 031415Z AUTO 26005KT 10SM CLR 26/18 A3001 RMK AO2
KMAW 031355Z AUTO 23007KT 10SM CLR 25/18 A3001 RMK AO2
KMAW 031335Z AUTO 24005KT 10SM CLR 25/18 A3001 RMK AO2
KMAW 031315Z AUTO 22004KT 10SM CLR 23/18 A3001 RMK AO2
KMAW 031255Z AUTO 22006KT 10SM CLR 23/18 A3001 RMK AO2
KMAW 031235Z AUTO 20006KT 10SM CLR 23/18 A3001 RMK AO2
KMAW 031215Z AUTO 20006KT 10SM CLR 22/18 A3001 RMK AO2
KMAW 031155Z AUTO 19006KT 10SM CLR 22/18 A3001 RMK AO2
KMAW 031135Z AUTO 00000KT 10SM CLR 21/17 A3001 RMK AO2
KMAW 031115Z AUTO 16004KT 10SM CLR 20/17 A3001 RMK AO2
KMAW 031055Z AUTO 00000KT 10SM CLR 20/17 A3001 RMK AO2
KMAW 031035Z AUTO 00000KT 10SM CLR 20/17 A3001 RMK AO2
KMAW 031015Z AUTO 17003KT 10SM CLR 20/17 A3001 RMK AO2
KMAW 030955Z AUTO 22003KT 10SM CLR 21/17 A3001 RMK AO2
KMAW 030935Z AUTO 25004KT 10SM CLR 21/17 A3001 RMK AO2
KMAW 030915Z AUTO 23005KT 10SM CLR 21/17 A3000 RMK AO2
KMAW 030855Z AUTO 24004KT 10SM CLR 21/16 A3000 RMK AO2
KMAW 030835Z AUTO 00000KT 10SM CLR 22/16 A3001 RMK AO2
KMAW 030815Z AUTO 00000KT 10SM CLR 22/16 A3001 RMK AO2
KMAW 030755Z AUTO 00000KT 10SM CLR 22/16 A3001 RMK AO2
KMAW 030735Z AUTO 23003KT 10SM CLR 22/16 A3001 RMK AO2
KMAW 030715Z AUTO 25004KT 10SM CLR 22/16 A3001 RMK AO2
KMAW 030655Z AUTO 24004KT 10SM CLR 22/16 A3001 RMK AO2
KMAW 030635Z AUTO 24004KT 10SM CLR 22/16 A3001 RMK AO2
KMAW 030615Z AUTO 23004KT 10SM CLR 23/15 A3002 RMK AO2
KMAW 030555Z AUTO 22003KT 10SM CLR 23/15 A3002 RMK AO2
KMAW 030535Z AUTO 23003KT 10SM CLR 23/15 A3002 RMK AO2
KMAW 030515Z AUTO 24007KT 10SM CLR 25/14 A3002 RMK AO2
KMAW 030455Z AUTO 23008KT 10SM CLR 25/14 A3002 RMK AO2
KMAW 030435Z AUTO 22006KT 10SM CLR 24/14 A3002 RMK AO2
KMAW 030415Z AUTO 22006KT 10SM CLR 25/14 A3003 RMK AO2
KMAW 030355Z AUTO 22007KT 10SM CLR 25/13 A3003 RMK AO2
KMAW 030335Z AUTO 22007KT 10SM CLR 25/13 A3004 RMK AO2
KMAW 030315Z AUTO 21006KT 10SM CLR 25/13 A3003 RMK AO2
KMAW 030255Z AUTO 22006KT 10SM CLR 25/13 A3004 RMK AO2
KMAW 030235Z AUTO 22006KT 10SM CLR 26/13 A3003 RMK AO2
KMAW 030215Z AUTO 22007KT 10SM CLR 26/13 A3002 RMK AO2
KMAW 030155Z AUTO 22005KT 10SM CLR 26/14 A3002 RMK AO2
KMAW 030135Z AUTO 23005KT 10SM CLR 27/13 A3002 RMK AO2
KMAW 030115Z AUTO 23005KT 10SM CLR 28/13 A3002 RMK AO2
KMAW 030055Z AUTO 23006KT 10SM CLR 29/12 A3002 RMK AO2
KMAW 030035Z AUTO 23006KT 10SM CLR 30/11 A3002 RMK AO2
KMAW 030015Z AUTO 23007KT 10SM CLR 31/11 A3002 RMK AO2
KMAW 022355Z AUTO 23007KT 10SM CLR 31/12 A3002 RMK AO2
KMAW 022335Z AUTO 24008KT 10SM CLR 31/11 A3002 RMK AO2
KMAW 022315Z AUTO 24009KT 10SM CLR 31/11 A3002 RMK AO2
KMAW 022255Z AUTO 24009KT 10SM CLR 32/10 A3002 RMK AO2
KMAW 022235Z AUTO 24008KT 10SM CLR 32/08 A3003 RMK AO2
KMAW 022215Z AUTO 24009KT 10SM CLR 32/08 A3003 RMK AO2
KMAW 022155Z AUTO 22011KT 10SM CLR 32/09 A3004 RMK AO2
KMAW 022135Z AUTO 24009G17KT 10SM CLR 32/10 A3004 RMK AO2
KMAW 022115Z AUTO 22009KT 10SM CLR 31/10 A3005 RMK AO2
KMAW 022055Z AUTO 23007G14KT 10SM CLR 31/08 A3006 RMK AO2
KMAW 022035Z AUTO 24010KT 10SM CLR 31/10 A3006 RMK AO2
KMAW 022015Z AUTO 25009KT 10SM CLR 30/09 A3007 RMK AO2
KMAW 021955Z AUTO 23010KT 10SM CLR 30/09 A3007 RMK AO2
KMAW 021935Z AUTO 22010KT 10SM CLR 31/09 A3008 RMK AO2
KMAW 021915Z AUTO 26008G15KT 10SM CLR 30/08 A3008 RMK AO2
KMAW 021855Z AUTO 25010KT 10SM CLR 30/09 A3009 RMK AO2
KMAW 021835Z AUTO 24009KT 10SM CLR 30/08 A3009 RMK AO2
KMAW 021815Z AUTO 26009KT 10SM CLR 30/10 A3010 RMK AO2
KMAW 021755Z AUTO 23009KT 10SM CLR 30/10 A3010 RMK AO2
KMAW 021735Z AUTO 26008KT 10SM CLR 30/09 A3011 RMK AO2
KMAW 021715Z AUTO 26010KT 10SM CLR 30/09 A3011 RMK AO2
KMAW 021655Z AUTO 22007KT 10SM CLR 30/09 A3011 RMK AO2
KMAW 021635Z AUTO 26008KT 10SM CLR 29/09 A3012 RMK AO2
KMAW 021615Z AUTO 24011KT 10SM CLR 29/09 A3013 RMK AO2
KMAW 021555Z AUTO 26008KT 10SM CLR 28/10 A3013 RMK AO2
KMAW 021535Z AUTO 25008KT 10SM CLR 28/10 A3013 RMK AO2
KMAW 021515Z AUTO 24008KT 10SM CLR 28/11 A3013 RMK AO2
KMAW 021455Z AUTO 27008KT 10SM CLR 27/12 A3014 RMK AO2
KMAW 021435Z AUTO 24007KT 10SM CLR 27/12 A3014 RMK AO2
KMAW 021415Z AUTO 00000KT 10SM CLR 26/13 A3014 RMK AO2
KMAW 021355Z AUTO 29003KT 10SM CLR 25/13 A3014 RMK AO2
KMAW 021335Z AUTO 00000KT 10SM CLR 24/12 A3014 RMK AO2
KMAW 021315Z AUTO 00000KT 10SM CLR 23/12 A3014 RMK AO2
KMAW 021255Z AUTO 24003KT 10SM CLR 22/12 A3014 RMK AO2
KMAW 021235Z AUTO 00000KT 10SM CLR 20/12 A3014 RMK AO2
KMAW 021215Z AUTO 00000KT 10SM CLR 19/13 A3014 RMK AO2
KMAW 021155Z AUTO 00000KT 10SM CLR 17/13 A3013 RMK AO2
KMAW 021135Z AUTO 00000KT 10SM CLR 16/12 A3013 RMK AO2
KMAW 021115Z AUTO 00000KT 10SM CLR 16/10 A3012 RMK AO2
KMAW 021055Z AUTO 00000KT 10SM CLR 16/11 A3012 RMK AO2
KMAW 021035Z AUTO 00000KT 10SM CLR 16/10 A3011 RMK AO2
KMAW 021015Z AUTO 00000KT 10SM CLR 16/10 A3011 RMK AO2
KMAW 020955Z AUTO 00000KT 10SM CLR 16/10 A3011 RMK AO2
KMAW 020935Z AUTO 00000KT 10SM CLR 17/10 A3011 RMK AO2
KMAW 020915Z AUTO 00000KT 10SM CLR 17/09 A3010 RMK AO2
KMAW 020855Z AUTO 00000KT 10SM CLR 18/10 A3010 RMK AO2
KMAW 020835Z AUTO 00000KT 10SM CLR 17/10 A3010 RMK AO2
KMAW 020815Z AUTO 00000KT 10SM CLR 18/10 A3010 RMK AO2
KMAW 020755Z AUTO 00000KT 10SM CLR 18/09 A3010 RMK AO2
KMAW 020735Z AUTO 00000KT 10SM CLR 17/10 A3010 RMK AO2
KMAW 020715Z AUTO 00000KT 10SM CLR 18/09 A3011 RMK AO2
KMAW 020655Z AUTO 00000KT 10SM CLR 18/08 A3011 RMK AO2
KMAW 020635Z AUTO 00000KT 10SM CLR 19/10 A3011 RMK AO2
KMAW 020615Z AUTO 00000KT 10SM CLR 18/11 A3012 RMK AO2
KMAW 020555Z AUTO 00000KT 10SM CLR 19/12 A3011 RMK AO2
KMAW 020535Z AUTO 00000KT 10SM CLR 20/09 A3012 RMK AO2
KMAW 020515Z AUTO 00000KT 10SM CLR 20/08 A3013 RMK AO2
KMAW 020455Z AUTO 00000KT 10SM CLR 20/09 A3013 RMK AO2
KMAW 020435Z AUTO 00000KT 10SM CLR 21/11 A3013 RMK AO2
KMAW 020415Z AUTO 00000KT 10SM CLR 22/10 A3014 RMK AO2
KMAW 020355Z AUTO 00000KT 10SM CLR 21/10 A3013 RMK AO2
KMAW 020335Z AUTO 15004KT 10SM CLR 22/10 A3013 RMK AO2
KMAW 020315Z AUTO 13003KT 10SM CLR 22/07 A3013 RMK AO2